Time;durP1;ratioP1;P1;durP2;ratioP2;P2;SDS_P1;SDS_P2;PMS_P1;PMS_P2;Temp;Humidity;BMP_temperature;BMP_pressure;BME280_temperature;BME280_humidity;BME280_pressure;Samples;Min_cycle;Max_cycle;Signal;HPM_P1;HPM_P2
2022/08/10 00:00:33;;;;;;;7.45;3.25;;;19.70;99.90;;;;;;5049957;28;20423;-53
2022/08/10 00:03:00;;;;;;;6.67;3.00;;;19.60;99.90;;;;;;5048771;28;20436;-59
2022/08/10 00:05:27;;;;;;;7.30;3.40;;;19.60;99.90;;;;;;5032320;28;20479;-53
2022/08/10 00:07:53;;;;;;;9.32;3.50;;;19.60;99.90;;;;;;5049303;28;20388;-53
2022/08/10 00:10:21;;;;;;;7.85;3.50;;;19.70;99.90;;;;;;5049705;28;20464;-57
2022/08/10 00:12:47;;;;;;;7.25;3.30;;;19.70;99.90;;;;;;5046090;28;20378;-53
2022/08/10 00:15:15;;;;;;;7.80;3.30;;;19.70;99.90;;;;;;5050540;28;20777;-53
2022/08/10 00:17:41;;;;;;;8.15;3.05;;;19.80;99.90;;;;;;5050241;28;20386;-53
2022/08/10 00:20:07;;;;;;;7.85;3.30;;;19.80;99.90;;;;;;5047984;28;20408;-60
2022/08/10 00:22:33;;;;;;;7.25;3.35;;;19.70;99.90;;;;;;5049437;28;20470;-52
2022/08/10 00:24:59;;;;;;;7.00;3.00;;;19.60;99.90;;;;;;5048399;28;20389;-54
2022/08/10 00:27:25;;;;;;;8.40;3.10;;;19.50;99.90;;;;;;5049828;28;20539;-52
2022/08/10 00:29:51;;;;;;;7.07;3.40;;;19.40;99.90;;;;;;5049203;28;20389;-52
2022/08/10 00:32:17;;;;;;;6.97;3.30;;;19.30;99.90;;;;;;5049016;28;20390;-52
2022/08/10 00:34:42;;;;;;;7.20;3.27;;;19.20;99.90;;;;;;5049868;28;20511;-53
2022/08/10 00:37:08;;;;;;;7.13;3.30;;;19.00;99.90;;;;;;5048938;28;20374;-55
2022/08/10 00:39:33;;;;;;;8.25;3.70;;;18.90;99.90;;;;;;5031884;28;20409;-55
2022/08/10 00:41:59;;;;;;;8.50;3.30;;;18.90;99.90;;;;;;5048770;28;20382;-56
2022/08/10 00:44:25;;;;;;;8.10;3.30;;;18.90;99.90;;;;;;5049457;28;20420;-56
2022/08/10 00:46:50;;;;;;;9.20;3.20;;;18.90;99.90;;;;;;5048920;28;20414;-56
2022/08/10 00:49:16;;;;;;;8.00;3.20;;;18.80;99.90;;;;;;5049265;28;20369;-55
2022/08/10 00:51:42;;;;;;;7.50;3.75;;;18.90;99.90;;;;;;5049519;28;20827;-58
2022/08/10 00:54:08;;;;;;;9.70;3.67;;;18.70;99.90;;;;;;5047833;28;20381;-55
2022/08/10 00:56:35;;;;;;;7.50;3.20;;;18.60;99.90;;;;;;5049408;28;20451;-52
2022/08/10 00:59:01;;;;;;;7.65;3.55;;;18.60;99.90;;;;;;5048797;28;20441;-52
2022/08/10 01:01:26;;;;;;;8.10;3.80;;;18.60;99.90;;;;;;5031805;28;20431;-52
2022/08/10 01:03:52;;;;;;;7.67;3.33;;;18.50;99.90;;;;;;5048379;28;20381;-53
2022/08/10 01:06:40;;;;;;;6.80;3.20;;;18.40;99.90;;;;;;5048519;28;20392;-52
2022/08/10 01:09:39;;;;;;;7.10;3.50;;;18.30;99.90;;;;;;5047159;28;20483;-52
2022/08/10 01:12:44;;;;;;;6.80;3.30;;;18.20;99.90;;;;;;5046494;28;20378;-52
2022/08/10 01:15:35;;;;;;;6.85;3.30;;;18.20;99.90;;;;;;4998054;28;20413;-52
2022/08/10 01:18:03;;;;;;;8.10;3.65;;;18.10;99.90;;;;;;5047879;28;20472;-52
2022/08/10 01:20:45;;;;;;;11.10;3.33;;;18.10;99.90;;;;;;5048566;28;20456;-52
2022/08/10 01:23:24;;;;;;;8.25;3.55;;;18.10;99.90;;;;;;5046553;28;20405;-52
2022/08/10 01:26:11;;;;;;;7.70;3.80;;;18.10;99.90;;;;;;5046235;28;20484;-52
2022/08/10 01:28:55;;;;;;;7.60;3.20;;;18.00;99.90;;;;;;5049167;28;20425;-52
2022/08/10 01:31:26;;;;;;;6.80;3.17;;;18.00;99.90;;;;;;5049225;28;20387;-53
2022/08/10 01:34:15;;;;;;;6.68;3.42;;;17.90;99.90;;;;;;5048008;28;20398;-52
2022/08/10 01:36:52;;;;;;;7.30;3.40;;;17.90;99.90;;;;;;5047693;28;20484;-52
2022/08/10 01:39:40;;;;;;;7.15;3.55;;;17.90;99.90;;;;;;5048338;28;20440;-53
2022/08/10 01:42:10;;;;;;;6.90;3.17;;;17.90;99.90;;;;;;5048250;28;20394;-54
2022/08/10 01:44:43;;;;;;;7.82;3.25;;;17.90;99.90;;;;;;5048457;28;20452;-52
2022/08/10 01:50:12;;;;;;;9.23;3.88;;;17.80;99.90;;;;;;5047351;28;20392;-52
2022/08/10 01:52:41;;;;;;;8.65;3.60;;;17.80;99.90;;;;;;5047630;28;20389;-52
2022/08/10 01:55:10;;;;;;;7.90;3.90;;;17.80;99.90;;;;;;5047735;28;20386;-52
2022/08/10 01:57:38;;;;;;;7.03;3.73;;;17.80;99.90;;;;;;5048055;28;20907;-52
2022/08/10 02:00:05;;;;;;;9.10;4.00;;;17.80;99.90;;;;;;5047214;28;20921;-52
2022/08/10 02:02:35;;;;;;;7.68;3.70;;;17.80;99.90;;;;;;5046677;28;20398;-58
2022/08/10 02:05:04;;;;;;;7.43;3.65;;;17.90;99.90;;;;;;5047600;28;20791;-52
2022/08/10 02:07:31;;;;;;;7.33;3.60;;;17.80;99.90;;;;;;5039426;28;20741;-52
2022/08/10 02:10:01;;;;;;;7.72;3.60;;;17.80;99.90;;;;;;5050687;28;20397;-52
2022/08/10 02:12:31;;;;;;;7.43;3.90;;;17.70;99.90;;;;;;5033956;28;20431;-52
2022/08/10 02:15:02;;;;;;;7.10;3.70;;;17.80;99.90;;;;;;5051323;28;20385;-52
2022/08/10 02:17:37;;;;;;;7.40;3.80;;;17.70;99.90;;;;;;5051804;28;20454;-52
2022/08/10 02:20:17;;;;;;;8.00;3.47;;;17.80;99.90;;;;;;5051180;28;20423;-52
2022/08/10 02:22:44;;;;;;;7.50;3.30;;;17.80;99.90;;;;;;5052058;28;20389;-52
2022/08/10 02:25:12;;;;;;;7.80;3.72;;;17.70;99.90;;;;;;5050648;28;20397;-52
2022/08/10 02:27:39;;;;;;;7.60;3.80;;;17.60;99.90;;;;;;5051295;28;20432;-54
2022/08/10 02:30:06;;;;;;;7.10;3.50;;;17.50;99.90;;;;;;5050546;28;21766;-52
2022/08/10 02:32:34;;;;;;;7.37;3.60;;;17.40;99.90;;;;;;5050705;28;20385;-52
2022/08/10 02:35:02;;;;;;;8.90;4.20;;;17.30;99.90;;;;;;5051260;28;20459;-52
2022/08/10 02:37:29;;;;;;;7.20;4.03;;;17.30;99.90;;;;;;5051321;28;20400;-52
2022/08/10 02:39:55;;;;;;;7.45;3.95;;;17.20;99.90;;;;;;5050358;28;20409;-52
2022/08/10 02:42:34;;;;;;;6.85;3.40;;;17.10;99.90;;;;;;5051424;28;20708;-53
2022/08/10 02:45:08;;;;;;;7.95;3.42;;;17.10;99.90;;;;;;5049307;28;20398;-52
2022/08/10 02:47:45;;;;;;;7.20;4.00;;;17.10;99.90;;;;;;5048788;28;20425;-52
2022/08/10 02:50:21;;;;;;;7.20;3.80;;;17.10;99.90;;;;;;5050825;28;20557;-52
2022/08/10 02:52:51;;;;;;;7.38;3.40;;;17.00;99.90;;;;;;5051378;28;20382;-52
2022/08/10 02:55:51;;;;;;;8.52;3.88;;;17.00;99.90;;;;;;5051147;28;20405;-58
2022/08/10 02:58:39;;;;;;;7.80;3.80;;;17.00;99.90;;;;;;5049364;28;20442;-52
2022/08/10 03:01:16;;;;;;;9.52;3.90;;;17.00;1.00;;;;;;5050055;28;20401;-56
2022/08/10 03:03:55;;;;;;;8.75;4.13;;;16.80;1.00;;;;;;5049317;28;20392;-52
2022/08/10 03:06:24;;;;;;;8.27;4.10;;;16.80;1.00;;;;;;5049399;28;20425;-52
2022/08/10 03:08:51;;;;;;;8.20;3.90;;;16.70;1.00;;;;;;5050705;28;20395;-63
2022/08/10 03:11:24;;;;;;;8.27;4.20;;;15.50;1.00;;;;;;5041594;28;20406;-52
2022/08/10 03:13:52;;;;;;;7.75;3.78;;;16.60;1.00;;;;;;5031899;28;20389;-52
2022/08/10 03:16:20;;;;;;;7.67;4.00;;;16.50;1.00;;;;;;5051509;28;20496;-52
2022/08/10 03:18:49;;;;;;;7.35;4.00;;;16.50;1.00;;;;;;5049868;28;20405;-54
2022/08/10 03:21:16;;;;;;;7.32;3.70;;;16.50;1.00;;;;;;5050839;28;20385;-53
2022/08/10 03:23:44;;;;;;;7.75;4.10;;;16.60;1.00;;;;;;5032231;28;20389;-53
2022/08/10 03:26:11;;;;;;;8.00;3.70;;;16.60;1.00;;;;;;5049851;28;21048;-52
2022/08/10 03:28:38;;;;;;;8.63;4.07;;;16.50;1.00;;;;;;5049975;28;20414;-53
2022/08/10 03:31:03;;;;;;;7.47;3.95;;;16.50;12.60;;;;;;5049483;28;20469;-55
2022/08/10 03:33:32;;;;;;;7.97;3.67;;;16.50;93.60;;;;;;5050155;28;20476;-55
2022/08/10 03:35:58;;;;;;;8.90;4.00;;;16.50;92.40;;;;;;5049149;28;20398;-55
2022/08/10 03:38:24;;;;;;;7.40;3.72;;;16.40;99.90;;;;;;5050301;28;20467;-52
2022/08/10 03:40:53;;;;;;;7.85;4.00;;;16.40;66.50;;;;;;5049409;28;20472;-52
2022/08/10 03:43:21;;;;;;;10.60;4.20;;;16.50;83.90;;;;;;5049572;28;20401;-52
2022/08/10 03:45:51;;;;;;;7.40;4.30;;;16.50;99.90;;;;;;5050255;28;20496;-52
2022/08/10 03:48:18;;;;;;;8.55;4.18;;;16.40;99.90;;;;;;5049950;28;20863;-52
2022/08/10 03:50:45;;;;;;;9.50;4.20;;;16.50;99.90;;;;;;5050178;28;20823;-52
2022/08/10 03:53:11;;;;;;;8.05;4.20;;;16.50;21.90;;;;;;5047166;28;20435;-52
2022/08/10 03:55:37;;;;;;;7.75;4.25;;;16.50;15.50;;;;;;5047390;28;20484;-52
2022/08/10 03:58:03;;;;;;;7.77;3.60;;;16.50;25.90;;;;;;5031552;28;21096;-52
2022/08/10 04:00:33;;;;;;;8.40;4.00;;;16.50;39.20;;;;;;5049547;28;20405;-61
2022/08/10 04:03:01;;;;;;;8.70;4.50;;;16.50;33.50;;;;;;5049217;28;20407;-52
2022/08/10 04:05:27;;;;;;;9.13;4.45;;;16.50;46.50;;;;;;5048844;28;20400;-52
2022/08/10 04:07:54;;;;;;;8.30;4.27;;;16.40;86.40;;;;;;5048354;28;20386;-52
2022/08/10 04:10:19;;;;;;;8.73;4.32;;;16.40;70.50;;;;;;5050000;28;20417;-54
2022/08/10 04:12:45;;;;;;;8.45;4.20;;;16.40;92.60;;;;;;5032588;28;20832;-52
2022/08/10 04:15:10;;;;;;;9.20;4.63;;;16.30;99.90;;;;;;5049786;28;20393;-52
2022/08/10 04:17:36;;;;;;;9.17;4.73;;;16.30;99.90;;;;;;5050049;28;20393;-56
2022/08/10 04:20:04;;;;;;;9.98;4.97;;;16.20;99.90;;;;;;5048183;28;20810;-51
2022/08/10 04:22:31;;;;;;;8.45;4.50;;;16.20;99.90;;;;;;5049992;28;20397;-52
2022/08/10 04:25:01;;;;;;;8.48;4.28;;;16.20;99.90;;;;;;5048362;28;20476;-53
2022/08/10 04:27:27;;;;;;;10.23;4.95;;;16.20;99.90;;;;;;5047813;28;20859;-52
2022/08/10 04:29:54;;;;;;;8.65;4.43;;;16.20;99.90;;;;;;5047181;28;20385;-57
2022/08/10 04:32:21;;;;;;;12.82;6.32;;;16.20;99.90;;;;;;5049524;28;20412;-53
2022/08/10 04:34:49;;;;;;;12.20;5.65;;;16.20;99.90;;;;;;5046405;28;20381;-52
2022/08/10 04:37:16;;;;;;;10.63;5.30;;;16.20;99.90;;;;;;5049368;28;20425;-52
2022/08/10 04:39:42;;;;;;;9.07;4.90;;;16.20;99.90;;;;;;5048286;28;20898;-53
2022/08/10 04:42:09;;;;;;;8.45;4.93;;;16.30;99.90;;;;;;5046975;28;20411;-52
2022/08/10 04:44:36;;;;;;;8.38;4.80;;;16.30;99.90;;;;;;5049241;28;20412;-52
2022/08/10 04:47:02;;;;;;;8.60;4.38;;;16.40;99.90;;;;;;5047807;28;20389;-57
2022/08/10 04:49:28;;;;;;;9.32;4.97;;;16.40;99.90;;;;;;5049442;28;20802;-52
2022/08/10 04:51:53;;;;;;;8.15;4.60;;;16.50;99.90;;;;;;5045912;28;20403;-53
2022/08/10 04:54:19;;;;;;;7.63;4.22;;;16.60;99.90;;;;;;5049021;28;20538;-52
2022/08/10 04:56:44;;;;;;;9.77;5.30;;;16.70;99.90;;;;;;5048093;28;20409;-52
2022/08/10 04:59:11;;;;;;;9.47;4.70;;;16.80;99.90;;;;;;5047974;28;20432;-52
2022/08/10 05:01:38;;;;;;;8.80;4.37;;;17.10;47.00;;;;;;5048226;28;20409;-52
2022/08/10 05:04:04;;;;;;;9.48;4.25;;;17.70;1.00;;;;;;5047758;28;20397;-52
2022/08/10 05:06:30;;;;;;;10.70;4.10;;;18.60;1.00;;;;;;5049188;28;20444;-53
2022/08/10 05:08:56;;;;;;;9.20;4.32;;;19.50;99.90;;;;;;5047756;28;20502;-52
2022/08/10 05:11:22;;;;;;;9.27;4.20;;;20.50;99.90;;;;;;5049119;28;20847;-52
2022/08/10 05:13:47;;;;;;;8.10;4.20;;;21.50;99.90;;;;;;5048655;28;20482;-52
2022/08/10 05:16:13;;;;;;;8.40;4.50;;;22.50;99.90;;;;;;5048178;28;20417;-53
2022/08/10 05:18:39;;;;;;;8.67;3.87;;;23.40;99.90;;;;;;5048766;28;20487;-53
2022/08/10 05:21:04;;;;;;;9.03;4.30;;;24.10;99.90;;;;;;5047456;28;20878;-53
2022/08/10 05:23:30;;;;;;;8.50;4.40;;;24.80;99.90;;;;;;5048569;28;20451;-52
2022/08/10 05:25:55;;;;;;;8.70;4.30;;;25.50;99.90;;;;;;5047845;28;20715;-58
2022/08/10 05:28:21;;;;;;;10.00;4.40;;;26.00;99.90;;;;;;5048644;28;20447;-58
2022/08/10 05:30:47;;;;;;;9.00;4.20;;;26.20;99.90;;;;;;5048405;28;20794;-58
2022/08/10 05:33:13;;;;;;;7.60;4.37;;;27.20;99.90;;;;;;5047488;28;20369;-57
2022/08/10 05:35:39;;;;;;;9.18;5.32;;;28.40;99.90;;;;;;5046663;28;20409;-58
2022/08/10 05:38:06;;;;;;;10.57;5.50;;;29.20;99.90;;;;;;5048202;28;20389;-58
2022/08/10 05:40:32;;;;;;;10.77;6.50;;;30.20;99.90;;;;;;5049199;28;20882;-57
2022/08/10 05:42:58;;;;;;;8.52;6.00;;;30.80;99.90;;;;;;5051942;28;20443;-58
2022/08/10 05:45:26;;;;;;;8.80;6.32;;;31.50;99.90;;;;;;5053070;28;20426;-58
2022/08/10 05:47:52;;;;;;;9.02;6.28;;;31.20;99.90;;;;;;5051814;28;20484;-65
2022/08/10 05:50:25;;;;;;;7.80;6.03;;;31.40;99.90;;;;;;5052834;28;20385;-58
2022/08/10 05:52:51;;;;;;;10.55;6.45;;;31.90;99.90;;;;;;5052367;28;20389;-60
2022/08/10 05:55:17;;;;;;;9.07;6.53;;;32.10;99.90;;;;;;5052822;28;20405;-58
2022/08/10 05:57:44;;;;;;;9.60;6.60;;;32.30;99.90;;;;;;5052853;28;20401;-58
2022/08/10 06:00:14;;;;;;;8.50;5.80;;;33.10;99.90;;;;;;5055054;28;20413;-58
2022/08/10 06:02:46;;;;;;;7.60;6.00;;;33.10;99.90;;;;;;5053053;28;20386;-58
2022/08/10 06:05:20;;;;;;;8.33;5.80;;;33.40;99.90;;;;;;5045691;28;20401;-57
2022/08/10 06:08:11;;;;;;;8.15;6.45;;;33.80;99.90;;;;;;5052826;28;20543;-58
2022/08/10 06:10:37;;;;;;;9.50;6.18;;;33.90;99.90;;;;;;5049401;28;20454;-58
2022/08/10 06:15:54;;;;;;;9.00;6.20;;;34.70;99.90;;;;;;5042410;28;20795;-58
2022/08/10 06:18:22;;;;;;;8.45;6.38;;;34.90;99.90;;;;;;5052663;28;20469;-58
2022/08/10 06:20:49;;;;;;;8.00;6.00;;;34.10;99.90;;;;;;5052341;28;20384;-58
2022/08/10 06:23:16;;;;;;;8.80;6.57;;;34.50;99.90;;;;;;5052490;28;20403;-58
2022/08/10 06:25:42;;;;;;;8.75;6.20;;;34.20;99.90;;;;;;5032649;28;20871;-57
2022/08/10 06:28:13;;;;;;;8.75;7.00;;;34.20;99.90;;;;;;5031693;28;20403;-58
2022/08/10 06:30:40;;;;;;;8.57;6.18;;;34.60;99.90;;;;;;5041394;28;20385;-58
2022/08/10 06:33:08;;;;;;;7.28;5.80;;;34.40;99.90;;;;;;5052258;28;20381;-58
2022/08/10 06:35:35;;;;;;;8.32;6.40;;;34.40;99.90;;;;;;5051900;28;20384;-58
2022/08/10 06:38:08;;;;;;;7.10;5.82;;;33.40;99.90;;;;;;5051618;28;20446;-58
2022/08/10 06:40:38;;;;;;;7.15;5.30;;;33.20;99.90;;;;;;5051362;28;20413;-57
2022/08/10 06:43:12;;;;;;;7.80;5.90;;;32.90;99.90;;;;;;5051525;28;20401;-58
2022/08/10 06:45:47;;;;;;;8.90;5.57;;;33.00;99.90;;;;;;5052047;28;20389;-58
2022/08/10 06:48:45;;;;;;;8.33;5.90;;;33.70;99.90;;;;;;5032116;28;20395;-58
2022/08/10 06:51:20;;;;;;;7.88;5.65;;;33.80;99.90;;;;;;4988375;28;20532;-58
2022/08/10 06:53:49;;;;;;;7.03;5.30;;;34.00;99.90;;;;;;5048283;28;20808;-58
2022/08/10 06:56:19;;;;;;;10.68;5.57;;;34.70;99.90;;;;;;5050112;28;20950;-58
2022/08/10 06:58:57;;;;;;;7.90;6.00;;;34.80;99.90;;;;;;5051299;28;20410;-58
2022/08/10 07:01:33;;;;;;;7.90;6.13;;;34.50;99.90;;;;;;5051337;28;20882;-59
2022/08/10 07:04:07;;;;;;;8.13;6.20;;;34.50;99.90;;;;;;5051173;28;20373;-59
2022/08/10 07:06:36;;;;;;;7.45;5.50;;;34.80;99.90;;;;;;5050703;28;20420;-58
2022/08/10 07:09:03;;;;;;;6.90;5.53;;;35.00;99.90;;;;;;5050979;28;20400;-58
2022/08/10 07:11:31;;;;;;;7.45;5.75;;;35.10;99.90;;;;;;5051263;28;20731;-58
2022/08/10 07:13:59;;;;;;;8.25;5.70;;;35.00;99.90;;;;;;5051564;28;20421;-58
2022/08/10 07:16:27;;;;;;;7.65;5.40;;;34.60;99.90;;;;;;5051368;28;20377;-54
2022/08/10 07:18:55;;;;;;;6.75;5.35;;;34.60;99.90;;;;;;5051085;28;20408;-63
2022/08/10 07:21:23;;;;;;;9.25;5.57;;;34.50;99.90;;;;;;5054517;28;20436;-57
2022/08/10 07:23:49;;;;;;;10.02;5.90;;;34.70;99.90;;;;;;5052102;28;20417;-58
2022/08/10 07:26:16;;;;;;;10.30;5.50;;;34.40;99.90;;;;;;5050486;28;20500;-59
2022/08/10 07:28:43;;;;;;;8.10;5.60;;;35.20;99.90;;;;;;5050722;28;20902;-57
2022/08/10 07:31:09;;;;;;;9.35;5.47;;;36.00;99.90;;;;;;5049781;28;20472;-58
2022/08/10 07:33:36;;;;;;;7.35;5.95;;;36.40;99.90;;;;;;5039901;28;20430;-58
2022/08/10 07:36:03;;;;;;;6.85;5.50;;;36.10;99.90;;;;;;5030037;28;20804;-58
2022/08/10 07:38:32;;;;;;;7.70;5.80;;;36.10;99.90;;;;;;5030835;28;20433;-57
2022/08/10 07:41:01;;;;;;;9.10;5.85;;;36.70;99.90;;;;;;5030119;28;20386;-57
2022/08/10 07:43:34;;;;;;;7.50;5.50;;;37.10;99.90;;;;;;5030932;28;20448;-57
2022/08/10 07:46:03;;;;;;;8.50;3.85;;;38.10;99.90;;;;;;5030055;28;20375;-58
2022/08/10 07:48:33;;;;;;;8.10;3.30;;;38.10;99.90;;;;;;5030895;28;20871;-58
2022/08/10 07:51:01;;;;;;;6.35;2.90;;;37.50;99.90;;;;;;5029823;28;20848;-58
2022/08/10 07:53:31;;;;;;;6.10;2.75;;;37.10;99.90;;;;;;5030785;28;20409;-58
2022/08/10 07:55:58;;;;;;;7.53;3.30;;;37.30;99.90;;;;;;5030140;28;20863;-58
2022/08/10 07:58:28;;;;;;;6.70;3.00;;;37.20;99.90;;;;;;5030217;28;20732;-58
2022/08/10 08:00:56;;;;;;;6.07;2.90;;;36.90;99.90;;;;;;5030417;28;20485;-64
2022/08/10 08:03:24;;;;;;;6.90;2.90;;;36.60;99.90;;;;;;5030311;28;20710;-58
2022/08/10 08:05:51;;;;;;;9.50;3.00;;;36.70;99.90;;;;;;5030669;28;20756;-57
2022/08/10 08:08:19;;;;;;;6.20;2.90;;;37.00;99.90;;;;;;5030683;28;20368;-58
2022/08/10 08:10:46;;;;;;;6.88;2.75;;;37.50;99.90;;;;;;5030903;28;20388;-57
2022/08/10 08:13:13;;;;;;;6.10;2.90;;;38.00;99.90;;;;;;5032869;28;20450;-57
2022/08/10 08:15:41;;;;;;;5.82;2.40;;;36.50;99.90;;;;;;5050803;28;20384;-58
2022/08/10 08:18:08;;;;;;;6.77;2.30;;;36.00;99.90;;;;;;5049914;28;20421;-59
2022/08/10 08:20:35;;;;;;;7.28;2.90;;;36.40;99.90;;;;;;5050399;28;20397;-58
2022/08/10 08:23:03;;;;;;;6.30;2.60;;;37.50;99.90;;;;;;5049203;28;20390;-58
2022/08/10 08:25:30;;;;;;;8.73;2.50;;;37.90;99.90;;;;;;5050521;28;20407;-58
2022/08/10 08:27:58;;;;;;;7.03;2.47;;;36.70;99.90;;;;;;5049145;28;20428;-58
2022/08/10 08:30:24;;;;;;;6.70;2.72;;;36.40;99.90;;;;;;5049698;28;20431;-58
2022/08/10 08:32:51;;;;;;;7.65;2.50;;;36.90;99.90;;;;;;5049847;28;20723;-59
2022/08/10 08:35:18;;;;;;;7.60;2.75;;;37.00;99.90;;;;;;5048928;28;20369;-57
2022/08/10 08:37:46;;;;;;;7.35;2.80;;;36.30;99.90;;;;;;5049564;28;20381;-59
2022/08/10 08:40:32;;;;;;;7.15;2.50;;;35.80;99.90;;;;;;5048989;28;20402;-58
2022/08/10 08:43:30;;;;;;;7.20;2.67;;;36.00;99.90;;;;;;5049462;28;20401;-57
2022/08/10 08:46:17;;;;;;;6.03;2.50;;;36.30;99.90;;;;;;5049088;28;20409;-58
2022/08/10 08:49:20;;;;;;;7.13;2.80;;;37.10;99.90;;;;;;5049985;28;20420;-57
2022/08/10 08:52:34;;;;;;;6.20;2.40;;;36.80;1.00;;;;;;5049915;28;20385;-58
2022/08/10 08:55:27;;;;;;;6.20;2.60;;;36.90;1.00;;;;;;5044013;28;20393;-57
2022/08/10 08:58:17;;;;;;;6.13;2.70;;;36.40;1.00;;;;;;5050338;28;20390;-58
2022/08/10 09:00:56;;;;;;;6.13;2.40;;;37.00;99.90;;;;;;5049720;28;20439;-57
2022/08/10 09:03:39;;;;;;;6.50;2.40;;;36.90;99.90;;;;;;5049071;28;20445;-58
2022/08/10 09:06:14;;;;;;;5.80;2.53;;;37.00;1.00;;;;;;5049617;28;20381;-57
2022/08/10 09:08:39;;;;;;;6.80;2.70;;;36.80;1.00;;;;;;5050094;28;20374;-58
2022/08/10 09:11:28;;;;;;;7.43;2.60;;;37.90;99.90;;;;;;5049329;28;20382;-57
2022/08/10 09:14:16;;;;;;;5.90;2.50;;;38.40;99.90;;;;;;5049573;28;20389;-64
2022/08/10 09:17:19;;;;;;;6.57;3.00;;;39.00;99.90;;;;;;5052908;28;20386;-58
2022/08/10 09:19:57;;;;;;;8.52;2.60;;;39.10;99.90;;;;;;5053891;28;20972;-58
2022/08/10 09:22:37;;;;;;;5.90;2.03;;;38.30;99.90;;;;;;5053096;28;20409;-57
2022/08/10 09:25:17;;;;;;;5.80;2.50;;;36.80;99.90;;;;;;5052335;28;20378;-58
2022/08/10 09:28:04;;;;;;;7.78;2.80;;;37.30;99.90;;;;;;5053240;28;20401;-58
2022/08/10 09:30:34;;;;;;;6.80;2.43;;;37.90;99.90;;;;;;5052910;28;20425;-57
2022/08/10 09:33:22;;;;;;;5.70;2.13;;;38.30;99.90;;;;;;5052687;28;20378;-58
2022/08/10 09:36:11;;;;;;;5.60;2.00;;;37.40;99.90;;;;;;5054113;28;20716;-57
2022/08/10 09:39:14;;;;;;;7.60;1.77;;;35.90;99.90;;;;;;5053169;28;20431;-58
2022/08/10 09:42:00;;;;;;;7.00;2.80;;;35.50;99.90;;;;;;5053488;28;20456;-57
2022/08/10 09:44:35;;;;;;;6.53;3.00;;;36.10;99.90;;;;;;5053340;28;20389;-57
2022/08/10 09:47:33;;;;;;;6.00;2.72;;;36.90;99.90;;;;;;5053009;28;20374;-58
2022/08/10 09:50:06;;;;;;;6.38;2.10;;;36.70;99.90;;;;;;5036098;28;20464;-57
2022/08/10 09:53:09;;;;;;;6.47;2.30;;;36.70;99.90;;;;;;5052899;28;20436;-58
2022/08/10 09:55:40;;;;;;;7.22;1.92;;;;;;;;;;5052530;28;20441;-57
2022/08/10 09:58:26;;;;;;;7.82;2.10;;;;;;;;;;5051998;28;20462;-58
2022/08/10 10:01:04;;;;;;;6.22;2.20;;;34.80;1.00;;;;;;5052607;28;20382;-58
2022/08/10 10:03:37;;;;;;;5.80;2.00;;;35.00;99.90;;;;;;5052309;28;20835;-60
2022/08/10 10:06:16;;;;;;;5.60;1.90;;;35.10;99.90;;;;;;5052337;28;20477;-57
2022/08/10 10:09:07;;;;;;;5.85;2.00;;;35.20;99.90;;;;;;5052677;28;20417;-58
2022/08/10 10:11:45;;;;;;;8.25;1.70;;;34.90;1.00;;;;;;5052420;28;20839;-58
2022/08/10 10:15:19;;;;;;;7.50;2.10;;;34.70;99.90;;;;;;5052304;28;20407;-57
2022/08/10 10:17:38;;;;;;;6.70;2.40;;;34.70;99.90;;;;;;5052435;28;20390;-58
2022/08/10 10:20:39;;;;;;;5.80;2.00;;;34.70;99.90;;;;;;5052147;28;20514;-58
2022/08/10 10:23:11;;;;;;;5.80;2.10;;;;;;;;;;5031451;28;20436;-58
2022/08/10 10:25:43;;;;;;;6.90;2.00;;;35.20;1.00;;;;;;5051978;28;20389;-58
2022/08/10 10:28:18;;;;;;;6.22;2.20;;;;;;;;;;5050525;28;20405;-57
2022/08/10 10:30:55;;;;;;;6.35;2.03;;;34.60;99.90;;;;;;5052597;28;20399;-58
2022/08/10 10:33:36;;;;;;;6.72;1.67;;;34.20;99.90;;;;;;5052123;28;20852;-57
2022/08/10 10:36:04;;;;;;;5.75;2.13;;;34.60;99.90;;;;;;5051715;28;20384;-57
2022/08/10 10:38:34;;;;;;;8.95;2.10;;;34.50;99.90;;;;;;5051902;28;20909;-57
2022/08/10 10:41:06;;;;;;;5.80;2.30;;;34.50;99.90;;;;;;5051583;28;20370;-56
2022/08/10 10:43:46;;;;;;;8.18;4.30;;;34.00;99.90;;;;;;5052303;28;20388;-57
2022/08/10 10:46:49;;;;;;;6.40;4.28;;;33.30;99.90;;;;;;5051331;28;20442;-57
2022/08/10 10:49:41;;;;;;;8.60;5.00;;;32.90;99.90;;;;;;5051592;28;20670;-62
2022/08/10 10:52:26;;;;;;;8.88;4.78;;;32.30;99.90;;;;;;5051710;28;20373;-57
2022/08/10 10:55:06;;;;;;;7.70;5.20;;;31.60;99.90;;;;;;5051611;28;20382;-57
2022/08/10 10:57:41;;;;;;;7.70;5.53;;;31.40;99.90;;;;;;5051670;28;20392;-57
2022/08/10 11:00:11;;;;;;;6.60;4.70;;;32.00;99.90;;;;;;5051275;28;20413;-57
2022/08/10 11:02:43;;;;;;;6.50;4.60;;;32.00;99.90;;;;;;5051807;28;20382;-57
2022/08/10 11:05:32;;;;;;;7.43;3.88;;;31.60;99.90;;;;;;5050900;28;20382;-57
2022/08/10 11:08:06;;;;;;;8.77;4.40;;;32.00;99.90;;;;;;5051122;28;20876;-63
2022/08/10 11:10:50;;;;;;;6.68;5.15;;;32.40;99.90;;;;;;5051302;28;20385;-57
2022/08/10 11:13:21;;;;;;;7.00;4.28;;;32.60;99.90;;;;;;5051122;28;20791;-57
2022/08/10 11:16:18;;;;;;;7.20;4.43;;;32.60;99.90;;;;;;5051913;28;20836;-58
2022/08/10 11:19:18;;;;;;;8.38;5.00;;;32.20;99.90;;;;;;5051129;28;20468;-58
2022/08/10 11:22:05;;;;;;;6.60;3.63;;;32.70;99.90;;;;;;5035570;28;20897;-58
2022/08/10 11:24:51;;;;;;;7.30;3.00;;;32.80;99.90;;;;;;5051353;28;20372;-58
2022/08/10 11:27:35;;;;;;;7.05;5.07;;;32.60;99.90;;;;;;5050723;28;20404;-58
2022/08/10 11:30:08;;;;;;;7.00;4.03;;;32.00;99.90;;;;;;5050562;28;20428;-62
2022/08/10 11:32:45;;;;;;;6.18;2.60;;;31.90;99.90;;;;;;5051005;28;20933;-58
2022/08/10 11:35:43;;;;;;;6.80;4.00;;;31.90;99.90;;;;;;5050326;28;20398;-59
2022/08/10 11:38:29;;;;;;;6.37;3.50;;;32.20;99.90;;;;;;5050113;28;20374;-58
2022/08/10 11:41:28;;;;;;;6.63;3.58;;;31.90;99.90;;;;;;5033431;28;20486;-58
2022/08/10 11:44:20;;;;;;;7.17;4.00;;;31.90;99.90;;;;;;5050964;28;20393;-58
2022/08/10 11:46:56;;;;;;;6.80;3.40;;;32.00;99.90;;;;;;5051082;28;20464;-58
2022/08/10 11:49:51;;;;;;;7.13;3.58;;;31.60;99.90;;;;;;5050457;28;20370;-59
2022/08/10 11:52:35;;;;;;;5.97;3.00;;;31.70;99.90;;;;;;5050495;28;20842;-58
2022/08/10 11:55:11;;;;;;;10.07;2.55;;;32.10;99.90;;;;;;5050045;28;20386;-58
2022/08/10 11:57:37;;;;;;;5.97;2.40;;;32.20;99.90;;;;;;5050482;28;20851;-58
2022/08/10 12:00:06;;;;;;;6.70;2.50;;;32.20;99.90;;;;;;5049867;28;20416;-58
2022/08/10 12:02:37;;;;;;;5.75;2.05;;;32.20;99.90;;;;;;5050438;28;20842;-58
2022/08/10 12:05:10;;;;;;;5.80;2.10;;;32.00;99.90;;;;;;5050014;28;20374;-58
2022/08/10 12:07:47;;;;;;;6.20;2.13;;;32.00;99.90;;;;;;5050943;28;20386;-58
2022/08/10 12:10:14;;;;;;;6.60;2.08;;;32.30;99.90;;;;;;5049529;28;20445;-58
2022/08/10 12:12:57;;;;;;;6.15;2.40;;;32.40;99.90;;;;;;5049956;28;20722;-58
2022/08/10 12:16:00;;;;;;;5.95;1.98;;;31.90;99.90;;;;;;5030530;28;20391;-59
2022/08/10 12:18:30;;;;;;;5.40;2.00;;;;;;;;;;5005621;28;20387;-58
2022/08/10 12:21:01;;;;;;;7.00;2.30;;;31.60;99.90;;;;;;5029977;28;20730;-58
2022/08/10 12:23:47;;;;;;;6.03;2.80;;;31.20;99.90;;;;;;5030534;28;20852;-58
2022/08/10 12:26:19;;;;;;;7.28;3.97;;;31.30;99.90;;;;;;5028590;28;20399;-58
2022/08/10 12:29:00;;;;;;;6.72;2.50;;;31.30;99.90;;;;;;5029938;28;20881;-59
2022/08/10 12:31:41;;;;;;;7.00;2.25;;;31.50;99.90;;;;;;5030210;28;20423;-58
2022/08/10 12:34:36;;;;;;;6.05;2.00;;;31.30;99.90;;;;;;5029905;28;20376;-59
2022/08/10 12:37:28;;;;;;;6.57;1.92;;;31.40;99.90;;;;;;5029667;28;20379;-58
2022/08/10 12:40:24;;;;;;;6.50;2.42;;;31.50;1.00;;;;;;5030164;28;20825;-59
2022/08/10 12:43:06;;;;;;;5.65;2.00;;;31.10;1.00;;;;;;5029903;28;20371;-58
2022/08/10 12:45:39;;;;;;;6.47;2.58;;;30.90;1.00;;;;;;5029712;28;20399;-58
2022/08/10 12:48:22;;;;;;;8.68;2.53;;;31.40;1.00;;;;;;5029443;28;20383;-59
2022/08/10 12:51:08;;;;;;;8.98;2.00;;;31.40;1.00;;;;;;5029615;28;20391;-58
2022/08/10 12:53:46;;;;;;;6.30;2.60;;;31.60;1.00;;;;;;5030426;28;20749;-58
2022/08/10 12:56:20;;;;;;;5.97;2.40;;;31.40;1.00;;;;;;5029120;28;20434;-58
2022/08/10 12:58:45;;;;;;;6.80;2.30;;;31.20;1.00;;;;;;5030107;28;20394;-58
2022/08/10 13:01:11;;;;;;;7.63;2.67;;;31.40;1.00;;;;;;5028942;28;20391;-58
2022/08/10 13:03:38;;;;;;;9.30;2.50;;;31.50;1.00;;;;;;5029907;28;20374;-58
2022/08/10 13:06:07;;;;;;;6.25;2.30;;;31.80;1.00;;;;;;5029311;28;20813;-59
2022/08/10 13:11:19;;;;;;;5.80;2.17;;;31.80;1.00;;;;;;5028708;28;20422;-58
2022/08/10 13:13:48;;;;;;;5.75;2.25;;;31.30;1.00;;;;;;5037068;28;21187;-59
2022/08/10 13:16:15;;;;;;;7.20;2.60;;;31.00;1.00;;;;;;5049524;28;20406;-58
2022/08/10 13:18:44;;;;;;;9.50;2.20;;;30.70;1.00;;;;;;5049325;28;20447;-58
2022/08/10 13:21:13;;;;;;;6.72;2.33;;;30.90;1.00;;;;;;5048894;28;20424;-58
2022/08/10 13:23:53;;;;;;;6.20;2.20;;;31.10;99.90;;;;;;5049191;28;20378;-58
2022/08/10 13:26:23;;;;;;;7.35;2.20;;;31.10;1.00;;;;;;5048582;28;20393;-58
2022/08/10 13:28:53;;;;;;;7.87;2.20;;;31.20;99.90;;;;;;5049275;28;20508;-61
2022/08/10 13:31:22;;;;;;;6.20;2.42;;;31.50;1.00;;;;;;5048946;28;20629;-58